createdAt,value
2019-05-10T00:00:23.568Z,99.16
2019-05-10T00:03:12.813Z,99.33
2019-05-10T00:06:01.941Z,99.61
2019-05-10T00:08:47.158Z,99.94
2019-05-10T00:11:24.530Z,100.00
2019-05-10T00:14:13.444Z,100.00
2019-05-10T00:16:45.834Z,100.00
2019-05-10T00:19:16.439Z,100.00
2019-05-10T00:21:47.075Z,100.00
2019-05-10T00:24:17.966Z,100.00
2019-05-10T00:26:51.165Z,100.00
2019-05-10T00:29:21.738Z,100.00
2019-05-10T00:31:52.400Z,100.00
2019-05-10T00:34:25.690Z,100.00
2019-05-10T00:36:58.238Z,100.00
2019-05-10T00:39:28.940Z,100.00
2019-05-10T00:41:59.622Z,100.00
2019-05-10T00:44:31.707Z,100.00
2019-05-10T00:47:04.348Z,100.00
2019-05-10T00:49:35.378Z,100.00
2019-05-10T00:52:05.979Z,100.00
2019-05-10T00:54:38.296Z,99.98
2019-05-10T00:57:09.370Z,99.99
2019-05-10T00:59:40.067Z,99.83
2019-05-10T01:02:10.703Z,99.64
2019-05-10T01:04:41.385Z,99.52
2019-05-10T01:07:12.155Z,99.54
2019-05-10T01:09:42.796Z,99.43
2019-05-10T01:12:13.370Z,99.52
2019-05-10T01:14:43.980Z,99.45
2019-05-10T01:17:15.941Z,99.40
2019-05-10T01:19:46.788Z,99.39
2019-05-10T01:22:17.530Z,99.53
2019-05-10T01:24:48.139Z,99.53
2019-05-10T01:27:18.771Z,99.73
2019-05-10T01:29:49.354Z,99.93
2019-05-10T01:32:21.616Z,100.00
2019-05-10T01:34:53.559Z,100.00
2019-05-10T01:37:24.024Z,100.00
2019-05-10T01:39:55.248Z,100.00
2019-05-10T01:42:27.405Z,100.00
2019-05-10T01:44:58.016Z,100.00
2019-05-10T01:47:30.187Z,100.00
2019-05-10T01:50:00.728Z,100.00
2019-05-10T01:52:31.445Z,100.00
2019-05-10T01:55:08.655Z,100.00
2019-05-10T01:57:42.113Z,100.00
2019-05-10T02:00:14.713Z,100.00
2019-05-10T02:02:45.271Z,100.00
2019-05-10T02:05:17.665Z,100.00
2019-05-10T02:07:48.512Z,100.00
2019-05-10T02:10:19.289Z,100.00
2019-05-10T02:12:50.578Z,100.00
2019-05-10T02:15:22.635Z,100.00
2019-05-10T02:17:56.403Z,100.00
2019-05-10T02:20:27.112Z,100.00
2019-05-10T02:22:57.709Z,100.00
2019-05-10T02:25:28.321Z,100.00
2019-05-10T02:27:58.933Z,100.00
2019-05-10T02:30:32.642Z,100.00
2019-05-10T02:33:04.919Z,100.00
2019-05-10T02:35:38.145Z,100.00
2019-05-10T02:38:08.781Z,100.00
2019-05-10T02:40:39.458Z,100.00
2019-05-10T02:43:10.152Z,100.00
2019-05-10T02:45:42.103Z,100.00
2019-05-10T02:48:12.956Z,100.00
2019-05-10T02:50:43.629Z,100.00
2019-05-10T02:53:14.906Z,100.00
2019-05-10T02:55:45.993Z,100.00
2019-05-10T02:58:16.654Z,100.00
2019-05-10T03:00:52.449Z,100.00
2019-05-10T03:03:26.045Z,100.00
2019-05-10T03:05:57.647Z,100.00
2019-05-10T03:08:31.152Z,100.00
2019-05-10T03:11:01.875Z,100.00
2019-05-10T03:13:34.920Z,100.00
2019-05-10T03:16:06.314Z,100.00
2019-05-10T03:18:38.198Z,100.00
2019-05-10T03:21:10.954Z,100.00
2019-05-10T03:23:41.545Z,100.00
2019-05-10T03:26:12.147Z,99.50
2019-05-10T03:28:46.208Z,98.66
2019-05-10T03:31:21.093Z,98.16
2019-05-10T03:33:56.836Z,97.02
2019-05-10T03:36:24.509Z,96.19
2019-05-10T03:38:55.433Z,95.74
2019-05-10T03:41:26.053Z,95.06
2019-05-10T03:43:56.696Z,94.64
2019-05-10T03:46:27.338Z,93.93
2019-05-10T03:48:57.950Z,93.28
2019-05-10T03:51:28.573Z,92.02
2019-05-10T03:54:01.841Z,91.52
2019-05-10T03:56:33.913Z,91.22
2019-05-10T03:59:04.562Z,91.67
2019-05-10T04:01:35.185Z,91.30
2019-05-10T04:04:09.462Z,90.90
2019-05-10T04:06:39.212Z,91.52
2019-05-10T04:09:09.810Z,91.80
2019-05-10T04:11:40.401Z,92.37
2019-05-10T04:14:11.122Z,92.45
2019-05-10T04:16:43.064Z,92.41
2019-05-10T04:19:13.661Z,92.23
2019-05-10T04:21:44.359Z,91.28
2019-05-10T04:24:15.066Z,90.80
2019-05-10T04:26:45.716Z,89.34
2019-05-10T04:29:16.376Z,89.14
2019-05-10T04:31:47.271Z,89.57
2019-05-10T04:34:17.867Z,88.62
2019-05-10T04:36:48.528Z,88.19
2019-05-10T04:39:19.112Z,87.56
2019-05-10T04:41:49.732Z,86.36
2019-05-10T04:44:20.436Z,85.09
2019-05-10T04:46:52.516Z,84.67
2019-05-10T04:49:23.350Z,85.38
2019-05-10T04:51:57.995Z,84.20
2019-05-10T04:54:28.590Z,83.12
2019-05-10T04:57:01.199Z,79.78
2019-05-10T04:59:31.904Z,80.75
2019-05-10T05:02:02.534Z,81.81
2019-05-10T05:04:34.710Z,80.91
2019-05-10T05:07:05.924Z,82.53
2019-05-10T05:09:39.561Z,82.98
2019-05-10T05:12:13.226Z,83.15
2019-05-10T05:14:47.115Z,84.01
2019-05-10T05:17:17.813Z,84.36
2019-05-10T05:19:49.351Z,85.36
2019-05-10T05:22:21.600Z,84.74
2019-05-10T05:24:55.298Z,83.07
2019-05-10T05:27:25.127Z,82.76
2019-05-10T05:29:55.929Z,83.10
2019-05-10T05:32:26.596Z,84.47
2019-05-10T05:34:57.405Z,82.73
2019-05-10T05:37:28.007Z,83.20
2019-05-10T05:39:58.689Z,83.93
2019-05-10T05:42:34.632Z,81.49
2019-05-10T05:45:08.500Z,81.48
2019-05-10T05:47:42.154Z,80.27
2019-05-10T05:50:12.224Z,80.64
2019-05-10T05:52:47.013Z,77.36
2019-05-10T05:55:22.781Z,76.72
2019-05-10T05:57:59.227Z,78.24
2019-05-10T06:00:31.518Z,75.99
2019-05-10T06:03:03.607Z,73.51
2019-05-10T06:05:38.712Z,75.89
2019-05-10T06:08:22.960Z,72.92
2019-05-10T06:10:56.766Z,70.70
2019-05-10T06:13:23.307Z,72.25
2019-05-10T06:15:54.236Z,68.42
2019-05-10T06:18:24.936Z,69.49
2019-05-10T06:20:55.527Z,66.84
2019-05-10T06:23:28.994Z,64.50
2019-05-10T06:25:58.698Z,66.40
2019-05-10T06:28:57.054Z,63.73
2019-05-10T06:31:02.152Z,66.08
2019-05-10T06:33:34.010Z,68.45
2019-05-10T06:36:05.054Z,70.25
2019-05-10T06:38:35.987Z,63.53
2019-05-10T06:41:10.106Z,66.12
2019-05-10T06:43:39.500Z,63.17
2019-05-10T06:46:10.749Z,64.37
2019-05-10T06:48:41.689Z,64.49
2019-05-10T06:51:12.638Z,62.11
2019-05-10T06:53:52.171Z,64.02
2019-05-10T06:56:15.586Z,62.58
2019-05-10T06:58:46.232Z,62.95
2019-05-10T07:01:16.872Z,59.80
2019-05-10T07:03:47.469Z,60.58
2019-05-10T07:06:18.255Z,60.87
2019-05-10T07:08:51.883Z,65.50
2019-05-10T07:11:21.120Z,62.67
2019-05-10T07:13:53.131Z,59.02
2019-05-10T07:16:26.032Z,60.07
2019-05-10T07:19:00.603Z,58.81
2019-05-10T07:21:29.352Z,55.03
2019-05-10T07:24:00.086Z,56.53
2019-05-10T07:26:30.924Z,55.80
2019-05-10T07:29:01.561Z,57.85
2019-05-10T07:31:32.178Z,57.43
2019-05-10T07:34:02.812Z,59.92
2019-05-10T07:36:33.457Z,61.02
2019-05-10T07:39:08.414Z,59.45
2019-05-10T07:41:38.580Z,57.19
2019-05-10T07:44:10.586Z,58.67
2019-05-10T07:46:47.135Z,57.28
2019-05-10T07:49:23.980Z,55.86
2019-05-10T07:52:02.103Z,59.55
2019-05-10T07:54:29.141Z,57.33
2019-05-10T07:57:02.071Z,55.29
2019-05-10T07:59:49.438Z,56.07
2019-05-10T08:15:50.914Z,53.50
2019-05-10T08:18:25.292Z,59.15
2019-05-10T08:21:01.926Z,58.49
2019-05-10T08:23:30.849Z,58.57
2019-05-10T08:26:04.458Z,58.63
2019-05-10T08:28:37.360Z,55.87
2019-05-10T08:31:06.270Z,56.93
2019-05-10T08:33:36.900Z,57.11
2019-05-10T08:36:07.492Z,53.73
2019-05-10T08:38:39.560Z,52.98
2019-05-10T08:41:14.836Z,56.71
2019-05-10T08:43:43.189Z,57.41
2019-05-10T08:46:13.987Z,53.10
2019-05-10T08:48:50.315Z,54.53
2019-05-10T08:51:16.839Z,50.39
2019-05-10T08:53:53.504Z,52.70
2019-05-10T08:56:21.672Z,52.97
2019-05-10T08:58:53.556Z,52.23
2019-05-10T09:01:30.133Z,52.14
2019-05-10T09:04:01.950Z,51.69
2019-05-10T09:06:29.214Z,52.35
2019-05-10T09:09:05.965Z,53.16
2019-05-10T09:11:32.795Z,54.25
2019-05-10T09:14:04.159Z,56.18
2019-05-10T09:16:43.549Z,56.60
2019-05-10T09:19:08.289Z,59.53
2019-05-10T09:21:41.021Z,58.32
2019-05-10T09:24:12.811Z,58.20
2019-05-10T09:26:46.948Z,57.79
2019-05-10T09:29:16.081Z,61.51
2019-05-10T09:31:50.699Z,61.34
2019-05-10T09:34:23.864Z,58.13
2019-05-10T09:36:53.187Z,54.75
2019-05-10T09:39:25.264Z,54.12
2019-05-10T09:41:56.034Z,51.99
2019-05-10T09:44:26.674Z,52.18
2019-05-10T09:46:58.440Z,53.26
2019-05-10T09:49:29.114Z,51.03
2019-05-10T09:52:04.466Z,54.64
2019-05-10T09:54:33.691Z,54.62
2019-05-10T09:57:08.210Z,56.61
2019-05-10T09:59:38.717Z,57.45
2019-05-10T10:02:18.128Z,59.62
2019-05-10T10:04:47.368Z,60.56
2019-05-10T10:07:19.018Z,60.70
2019-05-10T10:09:49.967Z,59.65
2019-05-10T10:12:20.554Z,60.50
2019-05-10T10:14:51.405Z,59.67
2019-05-10T10:17:22.013Z,61.60
2019-05-10T10:19:52.658Z,63.35
2019-05-10T10:22:23.526Z,62.04
2019-05-10T10:24:57.029Z,61.25
2019-05-10T10:27:34.249Z,60.40
2019-05-10T10:29:58.845Z,59.85
2019-05-10T10:32:31.354Z,59.14
2019-05-10T10:35:01.777Z,58.12
2019-05-10T10:37:32.447Z,58.11
2019-05-10T10:40:06.030Z,55.60
2019-05-10T10:42:38.070Z,57.78
2019-05-10T10:45:09.866Z,54.44
2019-05-10T10:47:40.479Z,53.98
2019-05-10T10:50:13.351Z,55.40
2019-05-10T10:52:43.659Z,53.69
2019-05-10T10:55:14.568Z,53.08
2019-05-10T10:57:45.197Z,50.82
2019-05-10T11:00:23.236Z,49.61
2019-05-10T11:02:51.946Z,51.42
2019-05-10T11:05:22.433Z,50.54
2019-05-10T11:07:53.074Z,51.31
2019-05-10T11:10:31.633Z,51.10
2019-05-10T11:13:10.664Z,50.51
2019-05-10T11:15:36.162Z,51.87
2019-05-10T11:18:06.945Z,54.07
2019-05-10T11:20:42.022Z,57.03
2019-05-10T11:23:10.720Z,57.15
2019-05-10T11:25:50.045Z,56.97
2019-05-10T11:28:13.840Z,55.96
2019-05-10T11:30:44.860Z,56.33
2019-05-10T11:33:25.992Z,54.10
2019-05-10T11:35:48.120Z,54.46
2019-05-10T11:38:21.321Z,56.79
2019-05-10T11:40:51.899Z,57.19
2019-05-10T11:43:26.814Z,56.04
2019-05-10T11:45:54.873Z,56.12
2019-05-10T11:48:28.940Z,55.55
2019-05-10T11:50:58.235Z,53.60
2019-05-10T11:53:31.474Z,51.39
2019-05-10T11:56:02.012Z,52.50
2019-05-10T11:59:03.772Z,51.89
2019-05-10T12:03:38.040Z,51.12
2019-05-10T12:06:09.697Z,51.41
2019-05-10T12:08:41.770Z,51.47
2019-05-10T12:11:27.731Z,53.27
2019-05-10T12:13:45.366Z,49.77
2019-05-10T12:21:21.843Z,55.56
2019-05-10T12:23:56.179Z,52.74
2019-05-10T12:26:03.776Z,51.22
2019-05-10T12:26:20.398Z,50.93
2019-05-10T12:26:27.160Z,52.55
2019-05-10T12:29:02.652Z,52.76
2019-05-10T12:31:31.092Z,52.19
2019-05-10T12:34:09.227Z,52.12
2019-05-10T12:36:35.617Z,50.52
2019-05-10T12:39:07.754Z,49.69
2019-05-10T12:41:44.689Z,49.31
2019-05-10T12:44:11.726Z,50.51
2019-05-10T12:46:43.283Z,48.94
2019-05-10T12:49:14.028Z,51.32
2019-05-10T12:51:44.694Z,52.46
2019-05-10T12:54:18.546Z,52.73
2019-05-10T12:56:47.629Z,54.08
2019-05-10T12:59:18.307Z,52.49
2019-05-10T13:01:49.553Z,51.82
2019-05-10T13:04:23.207Z,52.08
2019-05-10T13:06:52.480Z,53.73
2019-05-10T13:09:37.919Z,54.73
2019-05-10T13:12:03.123Z,54.20
2019-05-10T13:14:29.321Z,53.33
2019-05-10T13:17:03.850Z,52.23
2019-05-10T13:19:32.495Z,54.14
2019-05-10T13:22:07.367Z,52.84
2019-05-10T13:24:39.873Z,54.82
2019-05-10T13:27:10.460Z,53.31
2019-05-10T13:29:47.045Z,52.78
2019-05-10T13:32:14.844Z,54.15
2019-05-10T13:34:45.972Z,53.82
2019-05-10T13:37:23.069Z,53.38
2019-05-10T13:39:48.777Z,52.68
2019-05-10T13:42:19.550Z,51.34
2019-05-10T13:44:50.145Z,50.01
2019-05-10T13:47:21.573Z,49.68
2019-05-10T13:49:55.229Z,50.47
2019-05-10T13:52:29.757Z,52.50
2019-05-10T13:54:58.135Z,53.89
2019-05-10T13:57:28.736Z,53.73
2019-05-10T14:00:02.305Z,53.91
2019-05-10T14:02:34.254Z,54.96
2019-05-10T14:05:04.314Z,52.86
2019-05-10T14:07:35.070Z,53.01
2019-05-10T14:10:06.734Z,55.41
2019-05-10T14:12:37.432Z,54.90
2019-05-10T14:15:12.976Z,53.49
2019-05-10T14:17:43.045Z,53.39
2019-05-10T14:20:25.332Z,51.68
2019-05-10T14:22:48.530Z,49.33
2019-05-10T14:25:18.402Z,47.92
2019-05-10T14:27:50.517Z,48.36
2019-05-10T14:30:21.135Z,50.85
2019-05-10T14:32:51.749Z,59.30
2019-05-10T14:35:24.359Z,63.21
2019-05-10T14:37:54.703Z,65.48
2019-05-10T14:40:30.503Z,67.54
2019-05-10T14:43:02.399Z,68.28
2019-05-10T14:45:33.714Z,68.02
2019-05-10T14:48:04.271Z,67.87
2019-05-10T14:50:37.974Z,68.38
2019-05-10T14:53:08.703Z,67.41
2019-05-10T14:55:39.364Z,66.84
2019-05-10T14:58:10.017Z,67.42
2019-05-10T15:00:41.342Z,66.91
2019-05-10T15:03:11.986Z,66.42
2019-05-10T15:05:42.630Z,66.26
2019-05-10T15:08:13.242Z,65.94
2019-05-10T15:10:44.759Z,64.81
2019-05-10T15:13:19.791Z,65.15
2019-05-10T15:15:51.851Z,64.67
2019-05-10T15:18:22.430Z,64.55
2019-05-10T15:20:53.029Z,65.39
2019-05-10T15:23:24.002Z,65.96
2019-05-10T15:25:57.644Z,67.08
2019-05-10T15:28:27.022Z,66.70
2019-05-10T15:30:58.730Z,66.31
2019-05-10T15:33:29.337Z,66.50
2019-05-10T15:35:59.933Z,67.11
2019-05-10T15:38:31.030Z,67.33
2019-05-10T15:41:03.385Z,67.63
2019-05-10T15:43:34.043Z,67.03
2019-05-10T15:46:04.698Z,65.02
2019-05-10T15:48:36.468Z,65.47
2019-05-10T15:51:11.334Z,63.72
2019-05-10T15:53:40.107Z,63.19
2019-05-10T15:56:10.734Z,61.74
2019-05-10T15:58:42.606Z,62.53
2019-05-10T16:01:14.782Z,62.84
2019-05-10T16:03:46.298Z,64.05
2019-05-10T16:06:17.143Z,63.64
2019-05-10T16:08:49.505Z,64.57
2019-05-10T16:11:20.789Z,64.10
2019-05-10T16:13:54.729Z,64.26
2019-05-10T16:16:24.528Z,63.46
2019-05-10T16:18:55.295Z,63.88
2019-05-10T16:21:25.950Z,64.24
2019-05-10T16:23:58.559Z,65.24
2019-05-10T16:26:29.246Z,65.30
2019-05-10T16:29:02.129Z,65.48
2019-05-10T16:31:33.363Z,64.92
2019-05-10T16:34:05.743Z,65.07
2019-05-10T16:36:36.453Z,65.76
2019-05-10T16:39:07.746Z,66.49
2019-05-10T16:41:38.413Z,67.26
2019-05-10T16:44:12.600Z,67.19
2019-05-10T16:46:43.420Z,67.89
2019-05-10T16:49:17.355Z,69.00
2019-05-10T16:51:49.997Z,70.17
2019-05-10T16:54:25.349Z,71.31
2019-05-10T16:56:59.325Z,71.37
2019-05-10T16:59:29.647Z,71.95
2019-05-10T17:02:04.453Z,72.65
2019-05-10T17:04:37.980Z,73.03
2019-05-10T17:07:06.557Z,73.05
2019-05-10T17:09:37.159Z,74.40
2019-05-10T17:12:07.826Z,74.42
2019-05-10T17:14:38.597Z,75.14
2019-05-10T17:17:09.329Z,76.71
2019-05-10T17:19:39.950Z,77.06
2019-05-10T17:22:10.587Z,77.29
2019-05-10T17:24:41.209Z,78.19
2019-05-10T17:27:11.956Z,78.99
2019-05-10T17:29:44.566Z,80.29
2019-05-10T17:32:18.553Z,80.77
2019-05-10T17:34:49.282Z,81.19
2019-05-10T17:37:20.102Z,81.71
2019-05-10T17:39:53.611Z,82.63
2019-05-10T17:42:23.026Z,83.01
2019-05-10T17:44:55.102Z,83.07
2019-05-10T17:47:27.151Z,83.37
2019-05-10T17:49:58.574Z,83.68
2019-05-10T17:52:29.156Z,84.00
2019-05-10T17:55:00.362Z,84.29
2019-05-10T17:57:31.075Z,84.86
2019-05-10T18:00:01.905Z,84.56
2019-05-10T18:02:32.503Z,84.58
2019-05-10T18:05:06.143Z,83.99
2019-05-10T18:07:35.517Z,84.03
2019-05-10T18:10:06.815Z,84.24
2019-05-10T18:12:37.437Z,84.76
2019-05-10T18:15:10.370Z,84.48
2019-05-10T18:17:41.224Z,83.76
2019-05-10T18:20:12.829Z,83.27
2019-05-10T18:22:45.366Z,84.14
2019-05-10T18:25:20.372Z,84.42
2019-05-10T18:27:48.528Z,84.79
2019-05-10T18:30:19.640Z,85.17
2019-05-10T18:32:50.510Z,85.65
2019-05-10T18:35:22.095Z,85.87
2019-05-10T18:37:53.586Z,86.26
2019-05-10T18:40:31.824Z,87.33
2019-05-10T18:43:03.853Z,87.65
2019-05-10T18:45:30.699Z,87.85
2019-05-10T18:48:01.791Z,88.69
2019-05-10T18:50:32.625Z,88.73
2019-05-10T18:53:05.156Z,89.48
2019-05-10T18:55:35.820Z,89.70
2019-05-10T18:58:07.700Z,90.46
2019-05-10T19:00:40.221Z,90.38
2019-05-10T19:03:10.604Z,90.60
2019-05-10T19:05:41.562Z,91.12
2019-05-10T19:08:12.165Z,91.39
2019-05-10T19:10:42.783Z,91.25
2019-05-10T19:13:13.962Z,91.30
2019-05-10T19:15:46.069Z,91.79
2019-05-10T19:18:17.734Z,92.48
2019-05-10T19:20:53.384Z,92.42
2019-05-10T19:23:23.322Z,92.65
2019-05-10T19:25:54.156Z,92.60
2019-05-10T19:28:26.839Z,92.40
2019-05-10T19:30:58.849Z,92.00
2019-05-10T19:33:36.208Z,91.48
2019-05-10T19:36:02.063Z,91.25
2019-05-10T19:38:32.601Z,91.39
2019-05-10T19:41:03.341Z,91.04
2019-05-10T19:43:34.272Z,91.02
2019-05-10T19:46:04.899Z,91.41
2019-05-10T19:48:36.932Z,91.51
2019-05-10T19:51:09.632Z,91.36
2019-05-10T19:53:42.218Z,91.30
2019-05-10T19:56:12.416Z,91.45
2019-05-10T19:58:43.082Z,92.12
2019-05-10T20:01:14.290Z,92.47
2019-05-10T20:03:44.843Z,92.56
2019-05-10T20:06:15.477Z,93.12
2019-05-10T20:08:46.268Z,93.67
2019-05-10T20:11:16.925Z,94.17
2019-05-10T20:13:48.048Z,93.84
2019-05-10T20:16:20.306Z,94.06
2019-05-10T20:18:51.039Z,94.04
2019-05-10T20:21:22.963Z,93.33
2019-05-10T20:23:53.620Z,93.19
2019-05-10T20:26:24.886Z,93.45
2019-05-10T20:28:55.544Z,93.29
2019-05-10T20:31:26.200Z,93.30
2019-05-10T20:33:56.810Z,93.13
2019-05-10T20:36:29.451Z,92.68
2019-05-10T20:39:00.976Z,92.61
2019-05-10T20:41:31.826Z,93.07
2019-05-10T20:44:02.541Z,93.46
2019-05-10T20:46:33.159Z,93.42
2019-05-10T20:49:03.898Z,93.60
2019-05-10T20:51:34.511Z,93.27
2019-05-10T20:54:05.573Z,92.80
2019-05-10T20:56:36.173Z,93.43
2019-05-10T20:59:07.018Z,93.40
2019-05-10T21:01:37.671Z,93.29
2019-05-10T21:04:08.393Z,93.38
2019-05-10T21:06:39.128Z,93.46
2019-05-10T21:09:09.728Z,93.02
2019-05-10T21:11:40.373Z,93.57
2019-05-10T21:14:11.005Z,93.96
2019-05-10T21:16:42.175Z,94.35
2019-05-10T21:19:12.825Z,94.70
2019-05-10T21:21:43.867Z,94.46
2019-05-10T21:24:14.510Z,93.43
2019-05-10T21:26:46.009Z,93.32
2019-05-10T21:29:16.743Z,92.72
2019-05-10T21:31:47.487Z,91.66
2019-05-10T21:34:18.165Z,90.73
2019-05-10T21:36:48.945Z,89.09
2019-05-10T21:39:19.486Z,88.13
2019-05-10T21:41:50.736Z,87.67
2019-05-10T21:44:21.410Z,87.56
2019-05-10T21:46:53.757Z,87.43
2019-05-10T21:49:25.000Z,86.83
2019-05-10T21:51:55.605Z,86.61
2019-05-10T21:54:29.063Z,86.68
2019-05-10T21:56:59.655Z,86.98
2019-05-10T21:59:30.240Z,86.46
2019-05-10T22:02:01.396Z,86.49
2019-05-10T22:04:33.474Z,86.24
2019-05-10T22:07:04.075Z,86.25
2019-05-10T22:09:34.681Z,86.44
2019-05-10T22:12:05.970Z,86.71
2019-05-10T22:14:38.494Z,86.31
2019-05-10T22:17:11.384Z,85.90
2019-05-10T22:19:41.805Z,85.60
2019-05-10T22:22:12.902Z,85.59
2019-05-10T22:24:43.654Z,84.85
2019-05-10T22:27:14.280Z,84.57
2019-05-10T22:29:45.614Z,84.17
2019-05-10T22:32:17.807Z,84.59
2019-05-10T22:34:48.438Z,84.92
2019-05-10T22:37:19.055Z,84.36
2019-05-10T22:39:52.538Z,84.51
2019-05-10T22:42:23.299Z,83.75
2019-05-10T22:44:54.849Z,83.00
2019-05-10T22:47:25.689Z,82.63
2019-05-10T22:49:56.269Z,81.93
2019-05-10T22:52:26.862Z,81.75
2019-05-10T22:55:00.471Z,82.02
2019-05-10T22:57:30.584Z,81.90
2019-05-10T23:00:01.184Z,82.05
2019-05-10T23:02:34.022Z,81.42
2019-05-10T23:05:05.961Z,80.90
2019-05-10T23:07:36.684Z,81.11
2019-05-10T23:10:07.599Z,81.56
2019-05-10T23:12:38.421Z,81.47
2019-05-10T23:15:09.161Z,81.70
2019-05-10T23:17:39.756Z,82.33
2019-05-10T23:20:10.456Z,81.90
2019-05-10T23:22:41.384Z,81.80
2019-05-10T23:25:12.219Z,81.94
2019-05-10T23:27:42.842Z,82.08
2019-05-10T23:30:13.587Z,81.95
2019-05-10T23:32:46.522Z,82.16
2019-05-10T23:35:17.111Z,82.45
2019-05-10T23:37:47.808Z,82.13
2019-05-10T23:40:18.396Z,82.32
2019-05-10T23:42:49.071Z,82.46
2019-05-10T23:45:21.236Z,82.50
2019-05-10T23:47:51.921Z,82.22
2019-05-10T23:50:22.549Z,82.30
2019-05-10T23:52:53.265Z,82.73
2019-05-10T23:55:24.950Z,82.12
2019-05-10T23:57:55.585Z,82.38
